McClean, Nebraska
Current Conditions -  °F | °C
As of 10:15 AM on Saturday 25 Oct 2014 (Local Time) from KLCG Reporting Station
Clear Clear  
Wind Chill: 58°   Ceiling: Unl
Heat Index: 58°   Visibility: 10mi
Dew Point: 47°   Wind: 5mph
Humidity: 67%   Direction: 50°NE
Pressure: 30.14"   Gusts: NA
Location:  42.395°N, 97.4752°W
Report Text: KLCG 251515Z AUTO 05004KT 10SM CLR 14/08 A3014 RMK AO2 T01420081
Loading
Personal Weather Stations






























Interactive Weather Map
Tropical Storm Tracking
New forecast layout! Learn more

10-Day Weather Forecast

Advertisements
Track Severe Weather on mobile